Time;durP1;ratioP1;P1;durP2;ratioP2;P2;SDS_P1;SDS_P2;PMS_P1;PMS_P2;Temp;Humidity;BMP_temperature;BMP_pressure;BME280_temperature;BME280_humidity;BME280_pressure;Samples;Min_cycle;Max_cycle;Signal;HPM_P1;HPM_P2
2021/05/24 00:01:06;;;;;;;1.20;0.80;;;14.00;99.90;;;;;;5066267;28;20032;-50
2021/05/24 00:03:32;;;;;;;1.13;0.88;;;13.90;99.90;;;;;;5065876;28;20089;-52
2021/05/24 00:05:58;;;;;;;1.10;0.82;;;14.00;99.90;;;;;;5065246;28;20440;-50
2021/05/24 00:08:24;;;;;;;2.28;0.88;;;13.90;99.90;;;;;;5066120;28;20055;-53
2021/05/24 00:10:49;;;;;;;0.98;0.77;;;13.90;99.90;;;;;;5064794;28;20032;-52
2021/05/24 00:13:18;;;;;;;0.60;0.60;;;13.90;99.90;;;;;;5065385;28;20505;-51
2021/05/24 00:15:46;;;;;;;0.85;0.60;;;13.90;99.90;;;;;;5065091;28;20099;-53
2021/05/24 00:18:13;;;;;;;0.82;0.70;;;13.90;99.90;;;;;;5063889;28;20039;-53
2021/05/24 00:20:47;;;;;;;0.77;0.52;;;13.80;99.90;;;;;;5064832;28;20028;-53
2021/05/24 00:23:12;;;;;;;0.88;0.70;;;13.70;99.90;;;;;;5065524;28;20048;-53
2021/05/24 00:25:39;;;;;;;0.93;0.68;;;13.70;99.90;;;;;;5065608;28;20053;-54
2021/05/24 00:28:07;;;;;;;0.93;0.80;;;13.70;99.90;;;;;;5065361;28;20085;-55
2021/05/24 00:30:33;;;;;;;1.10;0.80;;;13.70;99.90;;;;;;5064957;28;20035;-58
2021/05/24 00:33:00;;;;;;;1.15;0.65;;;13.70;99.90;;;;;;5063174;28;20124;-58
2021/05/24 00:35:26;;;;;;;1.58;0.60;;;13.60;99.90;;;;;;5064324;28;20123;-58
2021/05/24 00:37:52;;;;;;;1.00;0.90;;;13.60;99.90;;;;;;5063363;28;20582;-58
2021/05/24 00:40:18;;;;;;;0.60;0.60;;;13.60;99.90;;;;;;5067024;28;20123;-58
2021/05/24 00:42:43;;;;;;;0.75;0.57;;;13.70;99.90;;;;;;5067028;28;20043;-58
2021/05/24 00:45:09;;;;;;;0.98;0.65;;;13.70;99.90;;;;;;5067555;28;20033;-58
2021/05/24 00:47:35;;;;;;;0.70;0.70;;;13.70;99.90;;;;;;5067313;28;20032;-58
2021/05/24 00:50:02;;;;;;;0.90;0.75;;;13.70;99.90;;;;;;5066294;28;20032;-58
2021/05/24 00:52:28;;;;;;;1.33;0.80;;;13.60;99.90;;;;;;5067039;28;20024;-58
2021/05/24 00:54:53;;;;;;;0.70;0.60;;;13.60;99.90;;;;;;5065113;28;20086;-58
2021/05/24 00:57:19;;;;;;;1.10;0.70;;;13.70;99.90;;;;;;5066856;28;20506;-58
2021/05/24 00:59:45;;;;;;;2.95;0.60;;;13.60;99.90;;;;;;5066570;28;20475;-58
2021/05/24 01:02:11;;;;;;;0.47;0.47;;;13.60;99.90;;;;;;5066981;28;20067;-58
2021/05/24 01:04:37;;;;;;;0.90;0.60;;;13.60;99.90;;;;;;5065986;28;20090;-58
2021/05/24 01:07:04;;;;;;;1.27;0.65;;;13.60;99.90;;;;;;5066948;28;20066;-58
2021/05/24 01:09:31;;;;;;;1.08;0.68;;;13.60;99.90;;;;;;5066301;28;20115;-58
2021/05/24 01:11:56;;;;;;;0.90;0.60;;;13.50;99.90;;;;;;5066253;28;20047;-58
2021/05/24 01:14:22;;;;;;;0.68;0.50;;;13.60;99.90;;;;;;5065885;28;20600;-58
2021/05/24 01:16:53;;;;;;;0.52;0.52;;;13.60;99.90;;;;;;5065764;28;20021;-58
2021/05/24 01:19:19;;;;;;;0.68;0.43;;;13.70;99.90;;;;;;5066653;28;20028;-58
2021/05/24 01:21:46;;;;;;;0.63;0.60;;;13.70;99.90;;;;;;5065971;28;20060;-58
2021/05/24 01:24:12;;;;;;;1.05;0.60;;;13.60;99.90;;;;;;5065807;28;20034;-58
2021/05/24 01:26:38;;;;;;;0.93;0.68;;;13.60;99.90;;;;;;5066534;28;20048;-58
2021/05/24 01:29:04;;;;;;;1.33;0.80;;;13.70;99.90;;;;;;5065660;28;20668;-58
2021/05/24 01:31:30;;;;;;;0.50;0.50;;;13.60;99.90;;;;;;5066508;28;20108;-58
2021/05/24 01:33:58;;;;;;;1.08;0.50;;;13.60;99.90;;;;;;5064110;28;20116;-58
2021/05/24 01:36:25;;;;;;;0.52;0.52;;;13.40;99.90;;;;;;5066299;28;20386;-58
2021/05/24 01:38:50;;;;;;;0.60;0.60;;;13.50;99.90;;;;;;5065126;28;20086;-58
2021/05/24 01:41:16;;;;;;;0.90;0.60;;;13.50;99.90;;;;;;5064663;28;20028;-58
2021/05/24 01:43:42;;;;;;;0.98;0.60;;;13.50;99.90;;;;;;5064848;28;20032;-58
2021/05/24 01:46:08;;;;;;;0.50;0.50;;;13.30;99.90;;;;;;5066900;28;20048;-58
2021/05/24 01:48:35;;;;;;;0.57;0.52;;;13.30;99.90;;;;;;5066137;28;20418;-58
2021/05/24 01:51:03;;;;;;;0.60;0.60;;;13.30;99.90;;;;;;5066124;28;20070;-58
2021/05/24 01:53:29;;;;;;;0.70;0.40;;;13.30;99.90;;;;;;5065132;28;20085;-58
2021/05/24 01:55:55;;;;;;;1.60;0.50;;;13.30;99.90;;;;;;5065703;28;20024;-58
2021/05/24 01:58:20;;;;;;;0.90;0.68;;;13.30;99.90;;;;;;5066291;28;20360;-58
2021/05/24 02:00:46;;;;;;;0.60;0.60;;;13.30;99.90;;;;;;5065715;28;20113;-58
2021/05/24 02:03:13;;;;;;;0.75;0.55;;;13.30;99.90;;;;;;5065653;28;20044;-58
2021/05/24 02:05:39;;;;;;;0.60;0.50;;;13.30;99.90;;;;;;5066256;28;20153;-58
2021/05/24 02:08:06;;;;;;;0.65;0.40;;;13.30;99.90;;;;;;5066321;28;20036;-57
2021/05/24 02:10:37;;;;;;;0.50;0.45;;;13.30;99.90;;;;;;5066231;28;20067;-58
2021/05/24 02:13:04;;;;;;;0.50;0.35;;;13.30;99.90;;;;;;5065927;28;20024;-58
2021/05/24 02:15:34;;;;;;;0.40;0.40;;;13.30;99.90;;;;;;5065008;28;20029;-58
2021/05/24 02:17:59;;;;;;;0.40;0.40;;;13.30;99.90;;;;;;5065501;28;20029;-58
2021/05/24 02:20:27;;;;;;;0.85;0.52;;;13.30;99.90;;;;;;5065862;28;20043;-58
2021/05/24 02:22:54;;;;;;;0.90;0.60;;;13.30;99.90;;;;;;5069809;28;20398;-58
2021/05/24 02:25:21;;;;;;;0.95;0.40;;;13.30;99.90;;;;;;5069177;28;20112;-58
2021/05/24 02:27:46;;;;;;;0.80;0.60;;;13.20;99.90;;;;;;5069734;28;20461;-58
2021/05/24 02:30:15;;;;;;;0.43;0.40;;;13.20;99.90;;;;;;5069491;28;20028;-56
2021/05/24 02:32:42;;;;;;;1.10;0.50;;;13.20;99.90;;;;;;5068894;28;20062;-57
2021/05/24 02:35:11;;;;;;;0.35;0.35;;;13.20;99.90;;;;;;5067586;28;20036;-56
2021/05/24 02:37:37;;;;;;;0.40;0.40;;;13.20;99.90;;;;;;5068518;28;20592;-57
2021/05/24 02:40:08;;;;;;;0.30;0.30;;;13.20;99.90;;;;;;5069380;28;20021;-57
2021/05/24 02:42:35;;;;;;;1.02;0.50;;;13.20;99.90;;;;;;5069230;28;20025;-56
2021/05/24 02:45:00;;;;;;;0.43;0.40;;;13.20;99.90;;;;;;5068851;28;20029;-57
2021/05/24 02:47:26;;;;;;;0.30;0.30;;;13.30;99.90;;;;;;5069179;28;20025;-56
2021/05/24 02:49:52;;;;;;;0.28;0.28;;;13.40;99.90;;;;;;5069328;28;20032;-56
2021/05/24 02:52:18;;;;;;;0.60;0.40;;;13.40;99.90;;;;;;5069396;28;20082;-56
2021/05/24 02:54:43;;;;;;;0.77;0.40;;;13.40;99.90;;;;;;5067910;28;20035;-56
2021/05/24 02:57:09;;;;;;;0.40;0.40;;;13.30;99.90;;;;;;5069567;28;20025;-56
2021/05/24 02:59:35;;;;;;;0.60;0.40;;;13.10;99.90;;;;;;5069105;28;20036;-56
2021/05/24 03:02:02;;;;;;;0.57;0.50;;;13.10;99.90;;;;;;5067538;28;20024;-56
2021/05/24 03:04:30;;;;;;;0.30;0.30;;;13.20;99.90;;;;;;5067596;28;20012;-56
2021/05/24 03:06:55;;;;;;;0.63;0.43;;;13.30;99.90;;;;;;5068164;28;20243;-56
2021/05/24 03:09:21;;;;;;;0.57;0.45;;;13.20;99.90;;;;;;5069114;28;20028;-56
2021/05/24 03:11:47;;;;;;;0.40;0.40;;;13.10;99.90;;;;;;5069207;28;20036;-56
2021/05/24 03:14:13;;;;;;;0.80;0.60;;;13.10;99.90;;;;;;5067752;28;20026;-56
2021/05/24 03:16:39;;;;;;;0.50;0.40;;;13.10;99.90;;;;;;5067155;28;20054;-56
2021/05/24 03:19:05;;;;;;;0.30;0.30;;;13.10;99.90;;;;;;5068890;28;20078;-56
2021/05/24 03:21:31;;;;;;;0.40;0.40;;;13.10;99.90;;;;;;5068524;28;20040;-56
2021/05/24 03:23:57;;;;;;;0.38;0.30;;;13.10;99.90;;;;;;5068219;28;20639;-56
2021/05/24 03:26:23;;;;;;;0.60;0.45;;;13.10;99.90;;;;;;5068587;28;20024;-56
2021/05/24 03:28:49;;;;;;;0.57;0.40;;;13.10;99.90;;;;;;5068547;28;20024;-56
2021/05/24 03:31:15;;;;;;;0.75;0.40;;;13.20;99.90;;;;;;5069174;28;20037;-56
2021/05/24 03:33:41;;;;;;;0.47;0.40;;;13.10;99.90;;;;;;5066852;28;20426;-56
2021/05/24 03:36:07;;;;;;;1.45;0.35;;;13.10;99.90;;;;;;5068247;28;20037;-56
2021/05/24 03:38:34;;;;;;;1.10;0.60;;;13.10;99.90;;;;;;5067471;28;20027;-56
2021/05/24 03:41:01;;;;;;;0.40;0.40;;;13.10;99.90;;;;;;5068614;28;20036;-56
2021/05/24 03:43:26;;;;;;;0.55;0.43;;;13.00;99.90;;;;;;5066783;28;20029;-56
2021/05/24 03:45:52;;;;;;;0.38;0.38;;;12.90;99.90;;;;;;5067892;28;20672;-56
2021/05/24 03:48:19;;;;;;;1.10;0.30;;;12.90;99.90;;;;;;5068843;28;20024;-56
2021/05/24 03:50:45;;;;;;;0.50;0.50;;;12.90;99.90;;;;;;5067603;28;20036;-56
2021/05/24 03:53:11;;;;;;;0.63;0.40;;;13.10;99.90;;;;;;5064845;28;20434;-56
2021/05/24 03:55:37;;;;;;;0.40;0.40;;;13.10;99.90;;;;;;5063625;28;20029;-56
2021/05/24 03:58:03;;;;;;;0.60;0.40;;;13.20;99.90;;;;;;5066557;28;20052;-56
2021/05/24 04:00:29;;;;;;;0.40;0.40;;;13.50;99.90;;;;;;5066541;28;20537;-56
2021/05/24 04:02:55;;;;;;;0.30;0.30;;;13.60;99.90;;;;;;5066600;28;20044;-56
2021/05/24 04:05:26;;;;;;;0.38;0.38;;;13.60;99.90;;;;;;5067668;28;20059;-56
2021/05/24 04:07:54;;;;;;;0.47;0.40;;;13.60;99.90;;;;;;5067321;28;20028;-56
2021/05/24 04:10:24;;;;;;;0.30;0.30;;;13.40;99.90;;;;;;5068124;28;20662;-56
2021/05/24 04:12:50;;;;;;;0.77;0.47;;;13.50;99.90;;;;;;5066878;28;20128;-56
2021/05/24 04:15:17;;;;;;;0.40;0.30;;;13.40;99.90;;;;;;5067134;28;20107;-56
2021/05/24 04:17:43;;;;;;;0.50;0.47;;;13.40;99.90;;;;;;5066826;28;20021;-56
2021/05/24 04:20:11;;;;;;;0.60;0.52;;;13.40;99.90;;;;;;5067341;28;20035;-56
2021/05/24 04:22:39;;;;;;;0.93;0.60;;;13.30;99.90;;;;;;5065206;28;20111;-56
2021/05/24 04:25:06;;;;;;;0.52;0.40;;;13.30;99.90;;;;;;5067216;28;20024;-56
2021/05/24 04:27:32;;;;;;;2.35;0.73;;;13.30;99.90;;;;;;5067032;28;20025;-56
2021/05/24 04:29:58;;;;;;;0.60;0.50;;;13.20;99.90;;;;;;5066284;28;20113;-56
2021/05/24 04:32:24;;;;;;;1.10;0.68;;;13.20;99.90;;;;;;5063624;28;20032;-56
2021/05/24 04:34:50;;;;;;;1.23;0.70;;;13.10;99.90;;;;;;5065276;28;20044;-56
2021/05/24 04:37:16;;;;;;;0.70;0.70;;;13.10;99.90;;;;;;5067476;28;20028;-56
2021/05/24 04:39:43;;;;;;;1.42;0.88;;;13.00;99.90;;;;;;5066389;28;20442;-56
2021/05/24 04:42:10;;;;;;;0.55;0.55;;;13.00;99.90;;;;;;5065404;28;20020;-56
2021/05/24 04:44:36;;;;;;;0.95;0.60;;;13.00;99.90;;;;;;5065242;28;20119;-56
2021/05/24 04:47:03;;;;;;;0.82;0.60;;;12.90;99.90;;;;;;5066669;28;20128;-56
2021/05/24 04:49:31;;;;;;;0.77;0.60;;;12.90;99.90;;;;;;5066884;28;20465;-56
2021/05/24 04:52:00;;;;;;;0.40;0.40;;;12.90;99.90;;;;;;5065361;28;20020;-56
2021/05/24 04:54:27;;;;;;;0.95;0.65;;;13.00;99.90;;;;;;5064870;28;20098;-56
2021/05/24 04:56:53;;;;;;;0.32;0.30;;;12.90;99.90;;;;;;5066174;28;20070;-56
2021/05/24 04:59:19;;;;;;;0.50;0.50;;;13.00;99.90;;;;;;5065240;28;20036;-56
2021/05/24 05:01:47;;;;;;;0.63;0.50;;;13.00;99.90;;;;;;5064917;28;20430;-56
2021/05/24 05:04:16;;;;;;;0.65;0.50;;;13.00;99.90;;;;;;5064878;28;20029;-56
2021/05/24 05:06:42;;;;;;;0.75;0.50;;;13.00;99.90;;;;;;5065803;28;20025;-56
2021/05/24 05:09:08;;;;;;;1.42;0.70;;;13.00;99.90;;;;;;5065994;28;20671;-56
2021/05/24 05:11:34;;;;;;;0.98;0.70;;;12.70;99.90;;;;;;5064805;28;20529;-56
2021/05/24 05:14:00;;;;;;;0.80;0.68;;;12.80;99.90;;;;;;5065493;28;20078;-56
2021/05/24 05:16:26;;;;;;;0.82;0.68;;;12.90;99.90;;;;;;5065723;28;20021;-56
2021/05/24 05:18:52;;;;;;;1.02;0.60;;;13.00;99.90;;;;;;5065725;28;20044;-56
2021/05/24 05:21:17;;;;;;;1.42;0.60;;;13.10;99.90;;;;;;5066292;28;20138;-56
2021/05/24 05:23:43;;;;;;;1.48;0.63;;;13.00;99.90;;;;;;5064719;28;20555;-56
2021/05/24 05:26:09;;;;;;;1.17;0.73;;;13.00;99.90;;;;;;5054373;28;20025;-56
2021/05/24 05:28:35;;;;;;;1.00;0.68;;;12.80;99.90;;;;;;5064732;28;20587;-56
2021/05/24 05:31:01;;;;;;;1.58;0.60;;;12.90;99.90;;;;;;5059331;28;20020;-56
2021/05/24 05:33:27;;;;;;;0.82;0.60;;;13.00;99.90;;;;;;5064804;28;20499;-56
2021/05/24 05:35:56;;;;;;;3.65;0.70;;;13.20;99.90;;;;;;5064988;28;20032;-56
2021/05/24 05:38:23;;;;;;;1.80;0.70;;;13.10;99.90;;;;;;5065858;28;20028;-56
2021/05/24 05:40:51;;;;;;;0.65;0.63;;;13.00;99.90;;;;;;5063226;28;20575;-56
2021/05/24 05:43:18;;;;;;;0.63;0.50;;;13.10;99.90;;;;;;5065056;28;20154;-56
2021/05/24 05:45:44;;;;;;;1.10;0.60;;;13.20;99.90;;;;;;5065475;28;20585;-56
2021/05/24 05:48:11;;;;;;;1.40;0.70;;;13.20;99.90;;;;;;5065911;28;20031;-56
2021/05/24 05:50:36;;;;;;;0.40;0.40;;;13.30;99.90;;;;;;5065406;28;20035;-56
2021/05/24 05:53:03;;;;;;;0.60;0.40;;;13.40;99.90;;;;;;5064506;28;20619;-56
2021/05/24 05:55:29;;;;;;;0.50;0.50;;;13.40;99.90;;;;;;5062683;28;20032;-56
2021/05/24 05:57:55;;;;;;;0.98;0.45;;;13.40;99.90;;;;;;5065350;28;20033;-56
2021/05/24 06:00:21;;;;;;;0.30;0.30;;;13.40;99.90;;;;;;5064661;28;20032;-55
2021/05/24 06:02:47;;;;;;;0.50;0.43;;;13.40;99.90;;;;;;5065159;28;20028;-56
2021/05/24 06:05:13;;;;;;;0.30;0.30;;;13.40;99.90;;;;;;5061132;28;20035;-56
2021/05/24 06:07:40;;;;;;;0.60;0.50;;;13.50;99.90;;;;;;5063592;28;20020;-56
2021/05/24 06:10:07;;;;;;;0.40;0.40;;;13.60;99.90;;;;;;5056173;28;20124;-56
2021/05/24 06:12:32;;;;;;;0.50;0.40;;;13.60;99.90;;;;;;5046143;28;20029;-56
2021/05/24 06:14:58;;;;;;;1.20;0.40;;;13.60;99.90;;;;;;5048551;28;20040;-56
2021/05/24 06:17:24;;;;;;;0.30;0.30;;;13.70;99.90;;;;;;5063753;28;20099;-56
2021/05/24 06:19:50;;;;;;;0.30;0.30;;;13.70;99.90;;;;;;5064848;28;20044;-56
2021/05/24 06:22:16;;;;;;;0.30;0.30;;;13.70;99.90;;;;;;5061844;28;20025;-56
2021/05/24 06:24:42;;;;;;;0.75;0.45;;;13.70;99.90;;;;;;5045247;28;20045;-56
2021/05/24 06:27:08;;;;;;;0.40;0.40;;;13.80;99.90;;;;;;5059184;28;20025;-56
2021/05/24 06:29:33;;;;;;;1.15;0.52;;;13.90;99.90;;;;;;5065872;28;20029;-56
2021/05/24 06:31:59;;;;;;;0.68;0.40;;;14.00;99.90;;;;;;5065745;28;20036;-56
2021/05/24 06:34:25;;;;;;;0.40;0.40;;;14.10;99.90;;;;;;5054885;28;20032;-56
2021/05/24 06:36:51;;;;;;;0.40;0.40;;;14.00;99.90;;;;;;5058518;28;20960;-56
2021/05/24 06:39:18;;;;;;;0.80;0.68;;;14.10;99.90;;;;;;5065537;28;20036;-56
2021/05/24 06:41:44;;;;;;;0.60;0.60;;;14.10;99.90;;;;;;5065014;28;20027;-56
2021/05/24 06:44:10;;;;;;;0.57;0.57;;;14.00;99.90;;;;;;5063226;28;20531;-56
2021/05/24 06:46:36;;;;;;;0.60;0.50;;;14.00;99.90;;;;;;5064792;28;20078;-56
2021/05/24 06:49:02;;;;;;;0.60;0.60;;;14.00;99.90;;;;;;5065730;28;20048;-56
2021/05/24 06:51:28;;;;;;;0.38;0.38;;;13.90;99.90;;;;;;5064502;28;20106;-55
2021/05/24 06:53:54;;;;;;;0.73;0.50;;;14.00;99.90;;;;;;5062552;28;20032;-56
2021/05/24 06:56:21;;;;;;;1.00;0.60;;;13.90;99.90;;;;;;5063815;28;20119;-56
2021/05/24 06:58:47;;;;;;;0.50;0.50;;;13.70;99.90;;;;;;5067642;28;20030;-56
2021/05/24 07:01:13;;;;;;;0.47;0.47;;;13.80;99.90;;;;;;5055920;28;20115;-56
2021/05/24 07:03:39;;;;;;;0.70;0.70;;;14.00;99.90;;;;;;5060544;28;20082;-56
2021/05/24 07:06:05;;;;;;;0.60;0.50;;;14.10;99.90;;;;;;5061358;28;20147;-57
2021/05/24 07:08:31;;;;;;;0.50;0.50;;;14.30;99.90;;;;;;5061042;28;20103;-56
2021/05/24 07:10:56;;;;;;;2.20;1.20;;;14.40;99.90;;;;;;5060803;28;20889;-56
2021/05/24 07:13:22;;;;;;;1.48;0.88;;;14.30;99.90;;;;;;5061668;28;20483;-56
2021/05/24 07:15:47;;;;;;;1.00;0.90;;;14.30;99.90;;;;;;5061572;28;20125;-56
2021/05/24 07:18:13;;;;;;;0.50;0.50;;;14.40;99.90;;;;;;5062981;28;20021;-56
2021/05/24 07:20:39;;;;;;;1.27;0.77;;;14.40;99.90;;;;;;5062395;28;20658;-56
2021/05/24 07:23:05;;;;;;;1.40;0.85;;;14.40;99.90;;;;;;5062479;28;20645;-56
2021/05/24 07:25:32;;;;;;;1.30;0.85;;;14.50;99.90;;;;;;5060461;28;20035;-56
2021/05/24 07:27:57;;;;;;;0.77;0.68;;;14.50;99.90;;;;;;5063695;28;20028;-56
2021/05/24 07:30:23;;;;;;;0.85;0.60;;;14.60;99.90;;;;;;5060063;28;20043;-56
2021/05/24 07:32:49;;;;;;;0.40;0.40;;;14.60;99.90;;;;;;5062112;28;20024;-56
2021/05/24 07:35:15;;;;;;;0.63;0.57;;;14.70;99.90;;;;;;5064344;28;20052;-56
2021/05/24 07:37:42;;;;;;;0.73;0.60;;;14.90;99.90;;;;;;5068811;28;20050;-56
2021/05/24 07:40:10;;;;;;;0.40;0.40;;;15.00;99.90;;;;;;5067583;28;20521;-56
2021/05/24 07:42:36;;;;;;;0.60;0.60;;;15.00;99.90;;;;;;5063155;28;20017;-56
2021/05/24 07:45:02;;;;;;;1.02;0.70;;;15.20;99.90;;;;;;5045808;28;20486;-56
2021/05/24 07:47:28;;;;;;;0.70;0.70;;;15.20;99.90;;;;;;5062465;28;20077;-56
2021/05/24 07:49:54;;;;;;;0.70;0.70;;;15.00;99.90;;;;;;5063395;28;20041;-56
2021/05/24 07:52:19;;;;;;;0.40;0.40;;;14.80;99.90;;;;;;5062651;28;20047;-56
2021/05/24 07:54:45;;;;;;;1.15;0.57;;;14.90;99.90;;;;;;5062363;28;20039;-55
2021/05/24 07:57:11;;;;;;;0.98;0.60;;;15.10;99.90;;;;;;5061285;28;20078;-56
2021/05/24 07:59:38;;;;;;;0.70;0.60;;;15.10;99.90;;;;;;5062178;28;20039;-56
2021/05/24 08:02:06;;;;;;;3.17;0.60;;;15.20;99.90;;;;;;5062216;28;20025;-56
2021/05/24 08:04:32;;;;;;;2.70;0.70;;;15.30;99.90;;;;;;5063685;28;20414;-56
2021/05/24 08:06:58;;;;;;;2.20;0.80;;;15.30;99.90;;;;;;5062097;28;20028;-57
2021/05/24 08:09:23;;;;;;;1.25;0.70;;;15.20;99.90;;;;;;5061189;28;20028;-56
2021/05/24 08:11:50;;;;;;;1.45;0.80;;;15.20;99.90;;;;;;5057161;28;20041;-56
2021/05/24 08:14:16;;;;;;;1.88;1.08;;;15.30;99.90;;;;;;5062374;28;20082;-56
2021/05/24 08:16:43;;;;;;;1.80;0.70;;;15.30;99.90;;;;;;5061543;28;20040;-56
2021/05/24 08:19:09;;;;;;;2.22;0.85;;;15.50;99.90;;;;;;5060771;28;20032;-55
2021/05/24 08:21:34;;;;;;;2.00;1.00;;;15.50;99.90;;;;;;5062875;28;20020;-56
2021/05/24 08:24:02;;;;;;;3.30;0.88;;;15.40;99.90;;;;;;5062063;28;20036;-57
2021/05/24 08:26:28;;;;;;;1.88;1.35;;;15.50;99.90;;;;;;5061296;28;20112;-55
2021/05/24 08:28:53;;;;;;;1.83;0.98;;;15.50;99.90;;;;;;5067307;28;20063;-56
2021/05/24 08:31:19;;;;;;;1.75;0.90;;;15.60;99.90;;;;;;5066491;28;20036;-56
2021/05/24 08:33:45;;;;;;;1.40;0.80;;;15.60;99.90;;;;;;5062790;28;20040;-56
2021/05/24 08:36:10;;;;;;;2.72;0.90;;;15.70;99.90;;;;;;5065556;28;20505;-57
2021/05/24 08:38:36;;;;;;;0.82;0.73;;;15.80;99.90;;;;;;5075997;28;20466;-56
2021/05/24 08:41:09;;;;;;;2.00;0.90;;;15.90;99.90;;;;;;5065859;28;20052;-56
2021/05/24 08:43:38;;;;;;;0.98;0.70;;;15.90;99.90;;;;;;5074036;28;20547;-56
2021/05/24 08:46:04;;;;;;;1.33;0.82;;;16.00;99.90;;;;;;5060577;28;20075;-56
2021/05/24 08:48:30;;;;;;;1.80;0.70;;;15.90;99.90;;;;;;5046639;28;20025;-57
2021/05/24 08:50:56;;;;;;;1.83;1.10;;;15.90;99.90;;;;;;5056340;28;20028;-56
2021/05/24 08:53:22;;;;;;;2.25;1.00;;;15.90;99.90;;;;;;5066205;28;20104;-56
2021/05/24 08:55:48;;;;;;;1.05;0.77;;;15.80;99.90;;;;;;5056257;28;20056;-55
2021/05/24 08:58:15;;;;;;;1.77;0.85;;;15.90;99.90;;;;;;5046735;28;20017;-57
2021/05/24 09:00:41;;;;;;;2.03;0.90;;;15.90;99.90;;;;;;5060322;28;20502;-56
2021/05/24 09:03:22;;;;;;;1.40;0.70;;;15.80;99.90;;;;;;5064360;28;20024;-56
2021/05/24 09:05:50;;;;;;;3.40;1.10;;;15.80;99.90;;;;;;5062528;28;20120;-55
2021/05/24 09:08:16;;;;;;;1.40;0.80;;;15.90;99.90;;;;;;5067103;28;20032;-55
2021/05/24 09:10:44;;;;;;;2.25;1.02;;;15.90;99.90;;;;;;5059684;28;20043;-56
2021/05/24 09:13:16;;;;;;;1.75;0.80;;;15.90;99.90;;;;;;5061371;28;20511;-55
2021/05/24 09:15:45;;;;;;;1.40;0.70;;;16.00;99.90;;;;;;5064817;28;20764;-56
2021/05/24 09:18:11;;;;;;;1.42;0.80;;;16.00;99.90;;;;;;5062413;28;20082;-54
2021/05/24 09:20:43;;;;;;;2.55;1.10;;;16.00;99.90;;;;;;5060100;28;20547;-56
2021/05/24 09:23:17;;;;;;;3.55;1.00;;;15.90;99.90;;;;;;5060886;28;20068;-57
2021/05/24 09:26:03;;;;;;;1.80;0.93;;;15.90;99.90;;;;;;5058880;28;20387;-56
2021/05/24 09:28:32;;;;;;;0.88;0.60;;;15.90;99.90;;;;;;5059758;28;20020;-53
2021/05/24 09:31:06;;;;;;;2.47;0.95;;;16.00;99.90;;;;;;5058914;28;20028;-54
2021/05/24 09:33:33;;;;;;;;;;;16.00;99.90;;;;;;5058568;28;20119;-53
2021/05/24 09:35:59;;;;;;;3.63;1.33;;;16.00;99.90;;;;;;5059466;28;19947;-56
2021/05/24 09:38:31;;;;;;;2.15;0.98;;;15.90;99.90;;;;;;5059202;28;20464;-54
2021/05/24 09:40:59;;;;;;;3.97;0.98;;;15.90;99.90;;;;;;5059425;28;20461;-56
2021/05/24 09:43:29;;;;;;;2.60;1.20;;;15.90;99.90;;;;;;5060315;28;20513;-57
2021/05/24 09:46:08;;;;;;;2.90;1.08;;;16.00;99.90;;;;;;5058456;28;20055;-55
2021/05/24 09:48:34;;;;;;;2.25;0.90;;;16.00;99.90;;;;;;5059339;28;20021;-54
2021/05/24 09:51:09;;;;;;;3.95;1.08;;;16.10;99.90;;;;;;5060870;28;20020;-56
2021/05/24 09:53:36;;;;;;;2.90;1.00;;;16.30;99.90;;;;;;5059770;28;20023;-55
2021/05/24 09:56:04;;;;;;;3.80;0.90;;;16.40;99.90;;;;;;5058563;28;20025;-56
2021/05/24 09:58:29;;;;;;;2.55;0.70;;;16.40;99.90;;;;;;5063865;28;20028;-55
2021/05/24 10:01:12;;;;;;;3.42;1.20;;;16.40;99.90;;;;;;5066116;28;20445;-56
2021/05/24 10:03:38;;;;;;;2.72;0.80;;;16.40;99.90;;;;;;5066176;28;20036;-56
2021/05/24 10:06:04;;;;;;;2.38;0.93;;;16.50;99.90;;;;;;5066655;28;20082;-56
2021/05/24 10:08:31;;;;;;;2.83;0.80;;;16.40;99.90;;;;;;5066731;28;20021;-56
2021/05/24 10:10:57;;;;;;;1.17;0.70;;;16.50;99.90;;;;;;5063334;28;20040;-55
2021/05/24 10:13:25;;;;;;;5.03;0.90;;;16.50;99.90;;;;;;5058400;28;20043;-56
2021/05/24 10:15:55;;;;;;;3.45;1.05;;;16.60;99.90;;;;;;5047127;28;20043;-56
2021/05/24 10:18:21;;;;;;;2.25;1.10;;;16.70;99.90;;;;;;5066841;28;20392;-55
2021/05/24 10:20:46;;;;;;;0.82;0.77;;;16.90;99.90;;;;;;5067024;28;20119;-54
2021/05/24 10:23:12;;;;;;;1.83;1.00;;;17.00;99.90;;;;;;5066736;28;20530;-54
2021/05/24 10:25:38;;;;;;;2.05;0.85;;;17.10;99.90;;;;;;5064830;28;20603;-56
2021/05/24 10:28:05;;;;;;;2.65;0.85;;;17.20;99.90;;;;;;5061791;28;20085;-55
2021/05/24 10:30:35;;;;;;;2.38;0.60;;;17.20;99.90;;;;;;5060429;28;20097;-50
2021/05/24 10:33:05;;;;;;;1.55;0.75;;;17.40;99.90;;;;;;5065799;28;20021;-52
2021/05/24 10:35:32;;;;;;;1.33;0.75;;;17.50;99.90;;;;;;5056144;28;20429;-51
2021/05/24 10:37:59;;;;;;;1.10;0.95;;;17.70;99.90;;;;;;5058717;28;20044;-48
2021/05/24 10:40:25;;;;;;;1.17;0.75;;;17.80;99.90;;;;;;5066341;28;20024;-52
2021/05/24 10:43:07;;;;;;;3.30;0.80;;;17.90;99.90;;;;;;5066195;28;20081;-52
2021/05/24 10:45:33;;;;;;;2.33;0.77;;;17.80;99.90;;;;;;5066703;28;20028;-50
2021/05/24 10:48:00;;;;;;;4.78;0.82;;;17.80;99.90;;;;;;5069589;28;20029;-51
2021/05/24 10:50:31;;;;;;;1.80;0.88;;;18.00;99.90;;;;;;5066818;28;20439;-51
2021/05/24 10:53:00;;;;;;;1.02;0.63;;;18.10;99.90;;;;;;5067180;28;20399;-51
2021/05/24 10:55:26;;;;;;;4.05;0.95;;;18.10;99.90;;;;;;5065799;28;20021;-51
2021/05/24 10:57:59;;;;;;;1.38;0.70;;;18.20;99.90;;;;;;5063742;28;20506;-50
2021/05/24 11:00:26;;;;;;;1.20;0.95;;;18.40;99.90;;;;;;5065605;28;20067;-52
2021/05/24 11:02:56;;;;;;;2.38;0.77;;;18.50;99.90;;;;;;5065046;28;20376;-49
2021/05/24 11:05:30;;;;;;;1.27;0.85;;;18.50;99.90;;;;;;5066354;28;20033;-49
2021/05/24 11:08:01;;;;;;;1.13;0.90;;;18.60;99.90;;;;;;5063988;28;20033;-51
2021/05/24 11:10:40;;;;;;;1.27;0.52;;;18.70;99.90;;;;;;5063589;28;20041;-49
2021/05/24 11:13:11;;;;;;;5.43;0.80;;;18.70;99.90;;;;;;5068170;28;20028;-49
2021/05/24 11:15:39;;;;;;;2.33;0.75;;;18.80;99.90;;;;;;5065223;28;20028;-50
2021/05/24 11:18:05;;;;;;;2.15;0.85;;;18.80;99.90;;;;;;5063907;28;20100;-51
2021/05/24 11:20:31;;;;;;;1.17;0.70;;;18.50;99.90;;;;;;5064155;28;20586;-50
2021/05/24 11:23:16;;;;;;;2.10;0.85;;;18.50;99.90;;;;;;5067649;28;20024;-51
2021/05/24 11:25:56;;;;;;;1.45;0.75;;;18.60;99.90;;;;;;5070168;28;20048;-49
2021/05/24 11:28:36;;;;;;;2.05;0.93;;;18.70;99.90;;;;;;5067324;28;20017;-50
2021/05/24 11:31:14;;;;;;;2.47;1.02;;;18.60;99.90;;;;;;5064982;28;20037;-51
2021/05/24 11:33:50;;;;;;;2.00;0.85;;;18.50;99.90;;;;;;5069080;28;20016;-51
2021/05/24 11:36:15;;;;;;;2.03;0.90;;;18.60;99.90;;;;;;5068104;28;20029;-51
2021/05/24 11:39:12;;;;;;;2.10;0.73;;;18.50;99.90;;;;;;5068446;28;20079;-51
2021/05/24 11:41:53;;;;;;;2.15;0.88;;;18.50;99.90;;;;;;5068490;28;20029;-51
2021/05/24 11:44:21;;;;;;;1.25;0.77;;;18.40;99.90;;;;;;5069424;28;20016;-51
2021/05/24 11:46:58;;;;;;;1.05;0.90;;;18.40;99.90;;;;;;5069097;28;20027;-51
2021/05/24 11:49:42;;;;;;;1.27;0.73;;;18.30;99.90;;;;;;5068353;28;20028;-51
2021/05/24 11:52:17;;;;;;;2.87;0.90;;;18.20;99.90;;;;;;5049482;28;20495;-51
2021/05/24 11:54:48;;;;;;;3.97;0.93;;;18.10;99.90;;;;;;5067932;28;20512;-52
2021/05/24 11:57:14;;;;;;;2.05;1.00;;;18.00;99.90;;;;;;5064672;28;20024;-51
2021/05/24 11:59:40;;;;;;;2.15;1.08;;;18.00;99.90;;;;;;5056054;28;20099;-52
2021/05/24 12:02:08;;;;;;;1.40;0.80;;;18.00;99.90;;;;;;5059630;28;20079;-49
2021/05/24 12:04:47;;;;;;;1.85;0.88;;;18.00;99.90;;;;;;5068081;28;20143;-49
2021/05/24 12:07:15;;;;;;;1.33;0.70;;;17.90;99.90;;;;;;5060718;28;20021;-50
2021/05/24 12:10:03;;;;;;;1.90;0.70;;;17.90;99.90;;;;;;5063185;28;20429;-52
2021/05/24 12:12:34;;;;;;;0.85;0.50;;;17.90;99.90;;;;;;5065869;28;20403;-51
2021/05/24 12:15:05;;;;;;;3.08;0.90;;;17.80;99.90;;;;;;5062119;28;20020;-50
2021/05/24 12:17:34;;;;;;;1.75;0.85;;;17.90;99.90;;;;;;5066566;28;20035;-48
2021/05/24 12:20:02;;;;;;;3.53;0.85;;;17.70;99.90;;;;;;5066506;28;20075;-49
2021/05/24 12:22:30;;;;;;;2.20;1.00;;;17.60;99.90;;;;;;5073006;28;20066;-48
2021/05/24 12:24:58;;;;;;;0.63;0.47;;;17.70;99.90;;;;;;5077498;28;20020;-48
2021/05/24 12:27:25;;;;;;;1.23;0.90;;;17.70;99.90;;;;;;5064149;28;20029;-48
2021/05/24 12:29:51;;;;;;;2.25;0.63;;;17.80;99.90;;;;;;5061793;28;20028;-47
2021/05/24 12:32:36;;;;;;;3.30;0.98;;;17.60;99.90;;;;;;5060791;28;20552;-48
2021/05/24 12:35:07;;;;;;;3.92;0.90;;;17.60;99.90;;;;;;5060790;28;20032;-48
2021/05/24 12:37:38;;;;;;;1.83;0.85;;;17.60;99.90;;;;;;5061416;28;20032;-51
2021/05/24 12:40:09;;;;;;;1.73;0.80;;;17.60;99.90;;;;;;5061543;28;20028;-50
2021/05/24 12:42:37;;;;;;;1.52;0.70;;;17.60;99.90;;;;;;5061173;28;20469;-51
2021/05/24 12:45:05;;;;;;;3.03;0.70;;;17.60;99.90;;;;;;5061667;28;20082;-51
2021/05/24 12:47:32;;;;;;;1.38;0.60;;;17.60;99.90;;;;;;5061611;28;20024;-52
2021/05/24 12:50:14;;;;;;;1.85;0.77;;;17.70;99.90;;;;;;5061687;28;20036;-50